Weather at Dallas Fort Worth International Airport

Public forecast

Using degrees Fahrenheit for public forecast. Weather courtesy of forecast.io.

Current aviation weather report (METAR) for Dallas Fort Worth International Airport

Retrieved 2021/07/29 07:53 UTC (24 minutes ago):

KDFW 290753Z 18004KT 10SM BKN250 27/22 A3001 RMK AO2 SLP150 T02670222

Aviation forecast (TAF) for Dallas Fort Worth International Airport

Retrieved 2021/07/29 06:22 UTC (2 hours ago):

TAF KDFW 290520Z 2906/3012 16006KT P6SM SCT250